Lehmann Sound — V2EM3 — position and weather

sailwx.info

Track history (hours):
 
Tides and Currents Weather Stations Pressure Air Temp Water Temp Dewpoint Dewpoint Depression Visibility Wind Speed Wind Dir Waves Ship Positions

Lehmann Sound

Last reported at 2016-May-25 18:28 UTC. Time now 2016-May-25 18:52 UTC.
Position N 58°36' E 016°13'.

Length 90 m; draft 4.1 m.

Type: Cargo ship. MMSI: 305476000.

Date/timePositionNaut miles runAvg speedWind from/ knotsBaromVisibWave heightAir tempDewpointWater temp
2016-May-25 18:28N 58°36' E 016°13'0 0.0
2016-May-25 17:04N 58°36' E 016°13'0 0.0
2016-May-25 16:28N 58°36' E 016°13'0 0.0
2016-May-25 14:16N 58°36' E 016°13'0 0.0
2016-May-25 13:22N 58°36' E 016°13'0 0.0
2016-May-25 12:28N 58°36' E 016°13'0 0.0
2016-May-25 11:28N 58°36' E 016°13'0 0.0
2016-May-25 10:31N 58°36' E 016°13'0 0.0
2016-May-25 09:31N 58°36' E 016°13'0 0.0
2016-May-25 08:31N 58°36' E 016°13'0 0.0
2016-May-25 07:31N 58°36' E 016°13'0 0.0
2016-May-25 06:31N 58°36' E 016°13'0 0.0
2016-May-25 05:28N 58°36' E 016°13'0 0.0
2016-May-25 04:28N 58°36' E 016°13'0 0.0
2016-May-25 03:28N 58°36' E 016°13'0 0.0
2016-May-25 02:28N 58°36' E 016°13'0 0.0
2016-May-25 01:28N 58°36' E 016°13'0 0.0
2016-May-25 00:28N 58°36' E 016°13'0 0.0
2016-May-24 23:28N 58°36' E 016°13'0 0.0
2016-May-24 22:28N 58°36' E 016°13'0 0.0
2016-May-24 21:28N 58°36' E 016°13'0 0.0
2016-May-24 20:28N 58°36' E 016°13'0 0.0
2016-May-24 19:22N 58°36' E 016°13'0 0.0
2016-May-24 18:28N 58°36' E 016°13'0 0.0
2016-May-24 17:28N 58°36' E 016°13'0 0.0
2016-May-24 16:28N 58°36' E 016°13'0 0.4
2016-May-24 15:33N 58°36' E 016°13'3 3.1
2016-May-24 14:34N 58°38' E 016°18'8 8.2
2016-May-24 13:34N 58°38' E 016°34'9 9.2
2016-May-24 12:34N 58°37' E 016°51'9 8.9
2016-May-24 11:34N 58°38' E 017°08'2 2.0
2016-May-24 10:32N 58°40' E 017°07'0 0.0
2016-May-24 09:32N 58°40' E 017°07'0 0.0
2016-May-24 08:32N 58°40' E 017°07'0 0.0
2016-May-24 07:29N 58°40' E 017°07'0 0.0
2016-May-24 06:32N 58°40' E 017°07'0 0.0
2016-May-24 05:23N 58°40' E 017°07'0 0.0
2016-May-24 04:26N 58°40' E 017°07'0 0.0
2016-May-24 03:32N 58°40' E 017°07'0 0.0
2016-May-24 02:32N 58°40' E 017°07'0 0.0
2016-May-24 01:32N 58°40' E 017°07'0 0.0
2016-May-24 00:29N 58°40' E 017°07'0 0.0
2016-May-23 23:32N 58°40' E 017°07'0 0.0
2016-May-23 22:32N 58°40' E 017°07'0 0.0
2016-May-23 21:32N 58°40' E 017°07'0 0.0
2016-May-23 20:32N 58°40' E 017°07'0 0.0
2016-May-23 19:32N 58°40' E 017°07'0 0.0
2016-May-23 18:32N 58°40' E 017°07'0 0.0
2016-May-23 17:32N 58°40' E 017°07'0 0.0
2016-May-23 16:32N 58°40' E 017°07'0 0.0
2016-May-23 15:32N 58°40' E 017°07'0 0.0
2016-May-23 14:32N 58°40' E 017°07'0 0.0
2016-May-23 13:32N 58°40' E 017°07'0 0.0
2016-May-23 12:32N 58°40' E 017°07'0 0.0
2016-May-23 11:32N 58°40' E 017°07'0 0.0
2016-May-23 10:29N 58°40' E 017°07'0 0.0
2016-May-23 09:32N 58°40' E 017°07'0 0.0
2016-May-23 08:32N 58°40' E 017°07'0 0.0
2016-May-23 07:26N 58°40' E 017°07'0 0.0
2016-May-23 06:32N 58°40' E 017°07'0 0.0
2016-May-23 05:32N 58°40' E 017°07'0 0.0
2016-May-23 04:32N 58°40' E 017°07'0 0.0
2016-May-23 03:32N 58°40' E 017°07'0 0.0
2016-May-23 02:32N 58°40' E 017°07'0 0.0
2016-May-23 01:32N 58°40' E 017°07'0 0.0
2016-May-23 00:31N 58°40' E 017°07'0 0.0
2016-May-22 23:31N 58°40' E 017°07'0 0.0
2016-May-22 22:31N 58°40' E 017°07'0 0.0
2016-May-22 21:31N 58°40' E 017°07'0 0.0
2016-May-22 20:31N 58°40' E 017°07'0 0.0
2016-May-22 19:31N 58°40' E 017°07'0 0.0
2016-May-22 18:31N 58°40' E 017°07'0 0.0
2016-May-22 17:31N 58°40' E 017°07'0 0.0
2016-May-22 16:31N 58°40' E 017°07'0 0.0
2016-May-22 15:31N 58°40' E 017°07'0 0.0
2016-May-22 14:31N 58°40' E 017°07'0 0.0
2016-May-22 13:31N 58°40' E 017°07'0 0.0
2016-May-22 12:33N 58°40' E 017°07'4 4.1
2016-May-22 11:34N 58°37' E 017°13'166 9.6
2016-May-21 18:20N 59°28' E 022°20'18 9.9
2016-May-21 16:28N 59°34' E 022°54'9 9.8
2016-May-21 15:32N 59°36' E 023°11'10 9.9
2016-May-21 14:33N 59°39' E 023°30'10 9.9
2016-May-21 13:33N 59°42' E 023°49'11 9.8
2016-May-21 12:28N 59°45' E 024°09'77 9.7
2016-May-21 04:33N 60°01' E 026°39'18 9.1
2016-May-21 02:33N 60°03' E 027°15'10 9.6
2016-May-21 01:33N 60°08' E 027°32'9 9.3
2016-May-21 00:33N 60°12' E 027°49'10 9.8
2016-May-20 23:33N 60°09' E 028°08'10 9.7
2016-May-20 22:33N 60°05' E 028°25'10 9.7
2016-May-20 21:33N 60°03' E 028°44'10 9.8
2016-May-20 20:33N 60°02' E 029°04'9 9.5
2016-May-20 19:33N 60°02' E 029°23'9 8.8
2016-May-20 18:33N 59°60' E 029°40'10 9.8
2016-May-20 17:34N 59°56' E 029°57'8 7.8
2016-May-20 16:33N 59°53' E 030°13'1 0.8
2016-May-20 15:31N 59°53' E 030°14'0 0.0
2016-May-20 14:31N 59°53' E 030°14'0 0.0
2016-May-20 13:28N 59°53' E 030°14'0 0.0
2016-May-20 12:31N 59°53' E 030°14'0 0.0
2016-May-20 11:31N 59°53' E 030°14'0 0.0
2016-May-20 10:31N 59°53' E 030°14'0 0.0
2016-May-20 09:31N 59°53' E 030°14'0 0.0
2016-May-20 08:31N 59°53' E 030°14'0 0.0
2016-May-20 07:31N 59°53' E 030°14'0 0.0
2016-May-20 06:31N 59°53' E 030°14'0 0.0
2016-May-20 05:25N 59°53' E 030°14'0 0.0
2016-May-20 04:31N 59°53' E 030°14'0 0.0
2016-May-20 03:34N 59°53' E 030°14'0 0.0
2016-May-20 02:33N 59°53' E 030°14'0 0.0
2016-May-20 01:30N 59°53' E 030°14'0 0.0
2016-May-20 00:30N 59°53' E 030°14'0 0.0
2016-May-19 23:33N 59°53' E 030°14'0 0.0
2016-May-19 22:33N 59°53' E 030°14'0 0.0
2016-May-19 21:30N 59°53' E 030°14'0 0.0
2016-May-19 20:30N 59°53' E 030°14'0 0.0
2016-May-19 19:33N 59°53' E 030°14'0 0.0
2016-May-19 18:33N 59°53' E 030°14'0 0.0
2016-May-19 17:33N 59°53' E 030°14'0 0.0
2016-May-19 16:30N 59°53' E 030°14'0 0.0
2016-May-19 15:33N 59°53' E 030°14'0 0.0
2016-May-19 14:33N 59°53' E 030°14'0 0.0
2016-May-19 13:33N 59°53' E 030°14'0 0.0
2016-May-19 12:33N 59°53' E 030°14'0 0.0
2016-May-19 11:33N 59°53' E 030°14'0 0.0
2016-May-19 10:30N 59°53' E 030°14'0 0.0
2016-May-19 09:30N 59°53' E 030°14'0 0.0
2016-May-19 08:33N 59°53' E 030°14'0 0.0
2016-May-19 07:30N 59°53' E 030°14'0 0.0
2016-May-19 06:33N 59°53' E 030°14'0 0.0
2016-May-19 05:33N 59°53' E 030°14'0 0.0
2016-May-19 04:33N 59°53' E 030°14'0 0.0
2016-May-19 03:27N 59°53' E 030°14'0 0.0
2016-May-19 02:33N 59°53' E 030°14'0 0.0
2016-May-19 01:33N 59°53' E 030°14'0 0.0
2016-May-19 00:33N 59°53' E 030°14'0 0.0
2016-May-18 23:33N 59°53' E 030°14'0 0.0
2016-May-18 22:30N 59°53' E 030°14'0 0.0
2016-May-18 21:33N 59°53' E 030°14'0 0.0
2016-May-18 20:33N 59°53' E 030°14'0 0.0
2016-May-18 19:24N 59°53' E 030°14'0 0.0
2016-May-18 18:33N 59°53' E 030°14'0 0.0
2016-May-18 17:33N 59°53' E 030°14'0 0.0
2016-May-18 16:33N 59°53' E 030°14'0 0.0
2016-May-18 15:32N 59°53' E 030°14'0 0.0
2016-May-18 14:29N 59°53' E 030°14'0 0.0
2016-May-18 13:32N 59°53' E 030°14'0 0.0
2016-May-18 12:32N 59°53' E 030°14'0 0.0
2016-May-18 11:29N 59°53' E 030°14'0 0.0
2016-May-18 10:32N 59°53' E 030°14'0 0.0
2016-May-18 09:32N 59°53' E 030°14'0 0.0
2016-May-18 08:32N 59°53' E 030°14'0 0.0
2016-May-18 07:33N 59°53' E 030°14'4 3.7
2016-May-18 06:33N 59°54' E 030°07'9 9.0
2016-May-18 05:33N 59°57' E 029°50'14 6.3
2016-May-18 03:19N 60°01' E 029°23'0 0.0
2016-May-18 02:22N 60°01' E 029°23'0 0.0
2016-May-18 01:04N 60°01' E 029°23'0 0.0
2016-May-18 00:25N 60°01' E 029°23'0 0.0
2016-May-17 23:25N 60°01' E 029°23'0 0.1
2016-May-17 22:25N 60°01' E 029°23'0 0.0
2016-May-17 21:31N 60°01' E 029°23'0 0.0
2016-May-17 15:22N 60°01' E 029°23'0 0.0
2016-May-17 14:25N 60°01' E 029°23'0 0.0
2016-May-17 11:28N 60°01' E 029°23'0 0.0
2016-May-17 02:31N 60°01' E 029°23'0 0.0
2016-May-17 01:31N 60°01' E 029°23'0 0.0
2016-May-17 00:31N 60°01' E 029°23'26 1.8
2016-May-16 09:33N 60°02' E 028°30'1110.7
2016-May-16 08:33N 60°07' E 028°11'1111.1
2016-May-16 07:32N 60°10' E 027°49'2311.0
2016-May-16 05:29N 59°59' E 027°09'1010.6
2016-May-16 04:33N 59°59' E 026°50'1110.9
2016-May-16 03:33N 59°58' E 026°28'66 9.5
2016-May-15 20:32N 59°32' E 024°26'8 8.5
2016-May-15 19:32N 59°27' E 024°40'0 0.0
2016-May-15 18:32N 59°27' E 024°40'  
Track history (hours):
 
Tides and Currents Weather Stations Pressure Air Temp Water Temp Dewpoint Dewpoint Depression Visibility Wind Speed Wind Dir Waves Ship Positions

Lehmann Sound

Last reported at 2016-May-25 18:28 UTC. Time now 2016-May-25 18:52 UTC.
Position N 58°36' E 016°13'.

Length 90 m; draft 4.1 m.

Type: Cargo ship. MMSI: 305476000.

Date/timePositionNaut miles runAvg speedWind from/ knotsBaromVisibWave heightAir tempDewpointWater temp
2016-May-25 18:28N 58°36' E 016°13'0 0.0
2016-May-25 17:04N 58°36' E 016°13'0 0.0
2016-May-25 16:28N 58°36' E 016°13'0 0.0
2016-May-25 14:16N 58°36' E 016°13'0 0.0
2016-May-25 13:22N 58°36' E 016°13'0 0.0
2016-May-25 12:28N 58°36' E 016°13'0 0.0
2016-May-25 11:28N 58°36' E 016°13'0 0.0
2016-May-25 10:31N 58°36' E 016°13'0 0.0
2016-May-25 09:31N 58°36' E 016°13'0 0.0
2016-May-25 08:31N 58°36' E 016°13'0 0.0
2016-May-25 07:31N 58°36' E 016°13'0 0.0
2016-May-25 06:31N 58°36' E 016°13'0 0.0
2016-May-25 05:28N 58°36' E 016°13'0 0.0
2016-May-25 04:28N 58°36' E 016°13'0 0.0
2016-May-25 03:28N 58°36' E 016°13'0 0.0
2016-May-25 02:28N 58°36' E 016°13'0 0.0
2016-May-25 01:28N 58°36' E 016°13'0 0.0
2016-May-25 00:28N 58°36' E 016°13'0 0.0
2016-May-24 23:28N 58°36' E 016°13'0 0.0
2016-May-24 22:28N 58°36' E 016°13'0 0.0
2016-May-24 21:28N 58°36' E 016°13'0 0.0
2016-May-24 20:28N 58°36' E 016°13'0 0.0
2016-May-24 19:22N 58°36' E 016°13'0 0.0
2016-May-24 18:28N 58°36' E 016°13'0 0.0
2016-May-24 17:28N 58°36' E 016°13'0 0.0
2016-May-24 16:28N 58°36' E 016°13'0 0.4
2016-May-24 15:33N 58°36' E 016°13'3 3.1
2016-May-24 14:34N 58°38' E 016°18'8 8.2
2016-May-24 13:34N 58°38' E 016°34'9 9.2
2016-May-24 12:34N 58°37' E 016°51'9 8.9
2016-May-24 11:34N 58°38' E 017°08'2 2.0
2016-May-24 10:32N 58°40' E 017°07'0 0.0
2016-May-24 09:32N 58°40' E 017°07'0 0.0
2016-May-24 08:32N 58°40' E 017°07'0 0.0
2016-May-24 07:29N 58°40' E 017°07'0 0.0
2016-May-24 06:32N 58°40' E 017°07'0 0.0
2016-May-24 05:23N 58°40' E 017°07'0 0.0
2016-May-24 04:26N 58°40' E 017°07'0 0.0
2016-May-24 03:32N 58°40' E 017°07'0 0.0
2016-May-24 02:32N 58°40' E 017°07'0 0.0
2016-May-24 01:32N 58°40' E 017°07'0 0.0
2016-May-24 00:29N 58°40' E 017°07'0 0.0
2016-May-23 23:32N 58°40' E 017°07'0 0.0
2016-May-23 22:32N 58°40' E 017°07'0 0.0
2016-May-23 21:32N 58°40' E 017°07'0 0.0
2016-May-23 20:32N 58°40' E 017°07'0 0.0
2016-May-23 19:32N 58°40' E 017°07'0 0.0
2016-May-23 18:32N 58°40' E 017°07'0 0.0
2016-May-23 17:32N 58°40' E 017°07'0 0.0
2016-May-23 16:32N 58°40' E 017°07'0 0.0
2016-May-23 15:32N 58°40' E 017°07'0 0.0
2016-May-23 14:32N 58°40' E 017°07'0 0.0
2016-May-23 13:32N 58°40' E 017°07'0 0.0
2016-May-23 12:32N 58°40' E 017°07'0 0.0
2016-May-23 11:32N 58°40' E 017°07'0 0.0
2016-May-23 10:29N 58°40' E 017°07'0 0.0
2016-May-23 09:32N 58°40' E 017°07'0 0.0
2016-May-23 08:32N 58°40' E 017°07'0 0.0
2016-May-23 07:26N 58°40' E 017°07'0 0.0
2016-May-23 06:32N 58°40' E 017°07'0 0.0
2016-May-23 05:32N 58°40' E 017°07'0 0.0
2016-May-23 04:32N 58°40' E 017°07'0 0.0
2016-May-23 03:32N 58°40' E 017°07'0 0.0
2016-May-23 02:32N 58°40' E 017°07'0 0.0
2016-May-23 01:32N 58°40' E 017°07'0 0.0
2016-May-23 00:31N 58°40' E 017°07'0 0.0
2016-May-22 23:31N 58°40' E 017°07'0 0.0
2016-May-22 22:31N 58°40' E 017°07'0 0.0
2016-May-22 21:31N 58°40' E 017°07'0 0.0
2016-May-22 20:31N 58°40' E 017°07'0 0.0
2016-May-22 19:31N 58°40' E 017°07'0 0.0
2016-May-22 18:31N 58°40' E 017°07'0 0.0
2016-May-22 17:31N 58°40' E 017°07'0 0.0
2016-May-22 16:31N 58°40' E 017°07'0 0.0
2016-May-22 15:31N 58°40' E 017°07'0 0.0
2016-May-22 14:31N 58°40' E 017°07'0 0.0
2016-May-22 13:31N 58°40' E 017°07'0 0.0
2016-May-22 12:33N 58°40' E 017°07'4 4.1
2016-May-22 11:34N 58°37' E 017°13'166 9.6
2016-May-21 18:20N 59°28' E 022°20'18 9.9
2016-May-21 16:28N 59°34' E 022°54'9 9.8
2016-May-21 15:32N 59°36' E 023°11'10 9.9
2016-May-21 14:33N 59°39' E 023°30'10 9.9
2016-May-21 13:33N 59°42' E 023°49'11 9.8
2016-May-21 12:28N 59°45' E 024°09'77 9.7
2016-May-21 04:33N 60°01' E 026°39'18 9.1
2016-May-21 02:33N 60°03' E 027°15'10 9.6
2016-May-21 01:33N 60°08' E 027°32'9 9.3
2016-May-21 00:33N 60°12' E 027°49'10 9.8
2016-May-20 23:33N 60°09' E 028°08'10 9.7
2016-May-20 22:33N 60°05' E 028°25'10 9.7
2016-May-20 21:33N 60°03' E 028°44'10 9.8
2016-May-20 20:33N 60°02' E 029°04'9 9.5
2016-May-20 19:33N 60°02' E 029°23'9 8.8
2016-May-20 18:33N 59°60' E 029°40'10 9.8
2016-May-20 17:34N 59°56' E 029°57'8 7.8
2016-May-20 16:33N 59°53' E 030°13'1 0.8
2016-May-20 15:31N 59°53' E 030°14'0 0.0
2016-May-20 14:31N 59°53' E 030°14'0 0.0
2016-May-20 13:28N 59°53' E 030°14'0 0.0
2016-May-20 12:31N 59°53' E 030°14'0 0.0
2016-May-20 11:31N 59°53' E 030°14'0 0.0
2016-May-20 10:31N 59°53' E 030°14'0 0.0
2016-May-20 09:31N 59°53' E 030°14'0 0.0
2016-May-20 08:31N 59°53' E 030°14'0 0.0
2016-May-20 07:31N 59°53' E 030°14'0 0.0
2016-May-20 06:31N 59°53' E 030°14'0 0.0
2016-May-20 05:25N 59°53' E 030°14'0 0.0
2016-May-20 04:31N 59°53' E 030°14'0 0.0
2016-May-20 03:34N 59°53' E 030°14'0 0.0
2016-May-20 02:33N 59°53' E 030°14'0 0.0
2016-May-20 01:30N 59°53' E 030°14'0 0.0
2016-May-20 00:30N 59°53' E 030°14'0 0.0
2016-May-19 23:33N 59°53' E 030°14'0 0.0
2016-May-19 22:33N 59°53' E 030°14'0 0.0
2016-May-19 21:30N 59°53' E 030°14'0 0.0
2016-May-19 20:30N 59°53' E 030°14'0 0.0
2016-May-19 19:33N 59°53' E 030°14'0 0.0
2016-May-19 18:33N 59°53' E 030°14'0 0.0
2016-May-19 17:33N 59°53' E 030°14'0 0.0
2016-May-19 16:30N 59°53' E 030°14'0 0.0
2016-May-19 15:33N 59°53' E 030°14'0 0.0
2016-May-19 14:33N 59°53' E 030°14'0 0.0
2016-May-19 13:33N 59°53' E 030°14'0 0.0
2016-May-19 12:33N 59°53' E 030°14'0 0.0
2016-May-19 11:33N 59°53' E 030°14'0 0.0
2016-May-19 10:30N 59°53' E 030°14'0 0.0
2016-May-19 09:30N 59°53' E 030°14'0 0.0
2016-May-19 08:33N 59°53' E 030°14'0 0.0
2016-May-19 07:30N 59°53' E 030°14'0 0.0
2016-May-19 06:33N 59°53' E 030°14'0 0.0
2016-May-19 05:33N 59°53' E 030°14'0 0.0
2016-May-19 04:33N 59°53' E 030°14'0 0.0
2016-May-19 03:27N 59°53' E 030°14'0 0.0
2016-May-19 02:33N 59°53' E 030°14'0 0.0
2016-May-19 01:33N 59°53' E 030°14'0 0.0
2016-May-19 00:33N 59°53' E 030°14'0 0.0
2016-May-18 23:33N 59°53' E 030°14'0 0.0
2016-May-18 22:30N 59°53' E 030°14'0 0.0
2016-May-18 21:33N 59°53' E 030°14'0 0.0
2016-May-18 20:33N 59°53' E 030°14'0 0.0
2016-May-18 19:24N 59°53' E 030°14'0 0.0
2016-May-18 18:33N 59°53' E 030°14'0 0.0
2016-May-18 17:33N 59°53' E 030°14'0 0.0
2016-May-18 16:33N 59°53' E 030°14'0 0.0
2016-May-18 15:32N 59°53' E 030°14'0 0.0
2016-May-18 14:29N 59°53' E 030°14'0 0.0
2016-May-18 13:32N 59°53' E 030°14'0 0.0
2016-May-18 12:32N 59°53' E 030°14'0 0.0
2016-May-18 11:29N 59°53' E 030°14'0 0.0
2016-May-18 10:32N 59°53' E 030°14'0 0.0
2016-May-18 09:32N 59°53' E 030°14'0 0.0
2016-May-18 08:32N 59°53' E 030°14'0 0.0
2016-May-18 07:33N 59°53' E 030°14'4 3.7
2016-May-18 06:33N 59°54' E 030°07'9 9.0
2016-May-18 05:33N 59°57' E 029°50'14 6.3
2016-May-18 03:19N 60°01' E 029°23'0 0.0
2016-May-18 02:22N 60°01' E 029°23'0 0.0
2016-May-18 01:04N 60°01' E 029°23'0 0.0
2016-May-18 00:25N 60°01' E 029°23'0 0.0
2016-May-17 23:25N 60°01' E 029°23'0 0.1
2016-May-17 22:25N 60°01' E 029°23'0 0.0
2016-May-17 21:31N 60°01' E 029°23'0 0.0
2016-May-17 15:22N 60°01' E 029°23'0 0.0
2016-May-17 14:25N 60°01' E 029°23'0 0.0
2016-May-17 11:28N 60°01' E 029°23'0 0.0
2016-May-17 02:31N 60°01' E 029°23'0 0.0
2016-May-17 01:31N 60°01' E 029°23'0 0.0
2016-May-17 00:31N 60°01' E 029°23'26 1.8
2016-May-16 09:33N 60°02' E 028°30'1110.7
2016-May-16 08:33N 60°07' E 028°11'1111.1
2016-May-16 07:32N 60°10' E 027°49'2311.0
2016-May-16 05:29N 59°59' E 027°09'1010.6
2016-May-16 04:33N 59°59' E 026°50'1110.9
2016-May-16 03:33N 59°58' E 026°28'66 9.5
2016-May-15 20:32N 59°32' E 024°26'8 8.5
2016-May-15 19:32N 59°27' E 024°40'0 0.0
2016-May-15 18:32N 59°27' E 024°40'  

Dump ship's entire track history